sensor_id;sensor_type;location;lat;lon;timestamp;P1;durP1;ratioP1;P2;durP2;ratioP2
41685;SDS011;27370;42.764;23.432;2022-09-14T00:00:40;11.27;;;8.10;;
41685;SDS011;27370;42.764;23.432;2022-09-14T00:03:06;13.35;;;8.38;;
41685;SDS011;27370;42.764;23.432;2022-09-14T00:05:33;11.20;;;7.85;;
41685;SDS011;27370;42.764;23.432;2022-09-14T00:08:00;11.60;;;7.97;;
41685;SDS011;27370;42.764;23.432;2022-09-14T00:10:25;11.57;;;7.95;;
41685;SDS011;27370;42.764;23.432;2022-09-14T00:12:51;11.52;;;8.23;;
41685;SDS011;27370;42.764;23.432;2022-09-14T00:15:16;13.88;;;8.88;;
41685;SDS011;27370;42.764;23.432;2022-09-14T00:17:42;12.98;;;8.30;;
41685;SDS011;27370;42.764;23.432;2022-09-14T00:20:08;12.50;;;8.40;;
41685;SDS011;27370;42.764;23.432;2022-09-14T00:22:34;11.82;;;8.20;;
41685;SDS011;27370;42.764;23.432;2022-09-14T00:24:59;11.82;;;8.90;;
41685;SDS011;27370;42.764;23.432;2022-09-14T00:27:25;10.88;;;8.02;;
41685;SDS011;27370;42.764;23.432;2022-09-14T00:29:50;10.98;;;7.63;;
41685;SDS011;27370;42.764;23.432;2022-09-14T00:32:15;11.45;;;8.65;;
41685;SDS011;27370;42.764;23.432;2022-09-14T00:34:41;13.73;;;8.60;;
41685;SDS011;27370;42.764;23.432;2022-09-14T00:37:06;12.40;;;8.18;;
41685;SDS011;27370;42.764;23.432;2022-09-14T00:39:32;10.57;;;7.60;;
41685;SDS011;27370;42.764;23.432;2022-09-14T00:41:57;11.35;;;8.20;;
41685;SDS011;27370;42.764;23.432;2022-09-14T00:46:49;11.88;;;7.85;;
41685;SDS011;27370;42.764;23.432;2022-09-14T00:51:57;11.95;;;8.57;;
41685;SDS011;27370;42.764;23.432;2022-09-14T00:54:54;11.90;;;8.15;;
41685;SDS011;27370;42.764;23.432;2022-09-14T00:57:20;12.10;;;8.25;;
41685;SDS011;27370;42.764;23.432;2022-09-14T00:59:48;12.32;;;8.20;;
41685;SDS011;27370;42.764;23.432;2022-09-14T01:02:16;10.52;;;7.88;;
41685;SDS011;27370;42.764;23.432;2022-09-14T01:04:43;11.40;;;7.90;;
41685;SDS011;27370;42.764;23.432;2022-09-14T01:09:53;14.30;;;9.55;;
41685;SDS011;27370;42.764;23.432;2022-09-14T01:12:42;14.48;;;9.80;;
41685;SDS011;27370;42.764;23.432;2022-09-14T01:18:02;13.35;;;9.73;;
41685;SDS011;27370;42.764;23.432;2022-09-14T01:25:57;13.65;;;8.77;;
41685;SDS011;27370;42.764;23.432;2022-09-14T01:28:52;12.95;;;8.48;;
41685;SDS011;27370;42.764;23.432;2022-09-14T01:31:37;12.70;;;7.15;;
41685;SDS011;27370;42.764;23.432;2022-09-14T01:34:08;10.35;;;6.78;;
41685;SDS011;27370;42.764;23.432;2022-09-14T01:36:42;11.20;;;7.65;;
41685;SDS011;27370;42.764;23.432;2022-09-14T01:39:13;10.82;;;6.38;;
41685;SDS011;27370;42.764;23.432;2022-09-14T01:41:42;9.80;;;5.72;;
41685;SDS011;27370;42.764;23.432;2022-09-14T01:44:12;8.40;;;5.47;;
41685;SDS011;27370;42.764;23.432;2022-09-14T01:46:43;11.05;;;6.47;;
41685;SDS011;27370;42.764;23.432;2022-09-14T01:49:20;9.30;;;5.97;;
41685;SDS011;27370;42.764;23.432;2022-09-14T01:51:55;9.68;;;6.72;;
41685;SDS011;27370;42.764;23.432;2022-09-14T01:54:27;11.60;;;7.18;;
41685;SDS011;27370;42.764;23.432;2022-09-14T01:56:59;10.05;;;7.00;;
41685;SDS011;27370;42.764;23.432;2022-09-14T01:59:28;10.45;;;6.78;;
41685;SDS011;27370;42.764;23.432;2022-09-14T02:05:15;10.48;;;7.63;;
41685;SDS011;27370;42.764;23.432;2022-09-14T02:07:12;13.18;;;7.80;;
41685;SDS011;27370;42.764;23.432;2022-09-14T02:09:38;10.32;;;7.45;;
41685;SDS011;27370;42.764;23.432;2022-09-14T02:12:04;12.25;;;7.25;;
41685;SDS011;27370;42.764;23.432;2022-09-14T02:14:30;12.43;;;7.97;;
41685;SDS011;27370;42.764;23.432;2022-09-14T02:16:56;10.10;;;7.32;;
41685;SDS011;27370;42.764;23.432;2022-09-14T02:19:22;11.32;;;8.30;;
41685;SDS011;27370;42.764;23.432;2022-09-14T02:21:50;10.85;;;7.55;;
41685;SDS011;27370;42.764;23.432;2022-09-14T02:24:15;10.70;;;7.07;;
41685;SDS011;27370;42.764;23.432;2022-09-14T02:26:42;10.80;;;7.45;;
41685;SDS011;27370;42.764;23.432;2022-09-14T02:29:07;10.68;;;6.95;;
41685;SDS011;27370;42.764;23.432;2022-09-14T02:31:52;10.73;;;7.45;;
41685;SDS011;27370;42.764;23.432;2022-09-14T02:34:29;10.18;;;7.25;;
41685;SDS011;27370;42.764;23.432;2022-09-14T02:48:56;10.88;;;7.13;;
41685;SDS011;27370;42.764;23.432;2022-09-14T02:51:32;10.60;;;7.60;;
41685;SDS011;27370;42.764;23.432;2022-09-14T02:56:36;10.55;;;6.95;;
41685;SDS011;27370;42.764;23.432;2022-09-14T02:59:02;11.63;;;6.40;;
41685;SDS011;27370;42.764;23.432;2022-09-14T03:01:27;10.63;;;6.82;;
41685;SDS011;27370;42.764;23.432;2022-09-14T03:03:53;9.82;;;6.35;;
41685;SDS011;27370;42.764;23.432;2022-09-14T03:06:19;10.40;;;6.43;;
41685;SDS011;27370;42.764;23.432;2022-09-14T03:08:44;9.07;;;5.97;;
41685;SDS011;27370;42.764;23.432;2022-09-14T03:11:10;9.23;;;6.13;;
41685;SDS011;27370;42.764;23.432;2022-09-14T03:13:35;11.15;;;7.00;;
41685;SDS011;27370;42.764;23.432;2022-09-14T03:16:10;9.55;;;6.05;;
41685;SDS011;27370;42.764;23.432;2022-09-14T03:18:37;10.27;;;6.50;;
41685;SDS011;27370;42.764;23.432;2022-09-14T03:21:21;9.88;;;7.18;;
41685;SDS011;27370;42.764;23.432;2022-09-14T03:23:47;10.20;;;6.63;;
41685;SDS011;27370;42.764;23.432;2022-09-14T03:26:15;10.15;;;7.05;;
41685;SDS011;27370;42.764;23.432;2022-09-14T03:28:42;11.60;;;7.50;;
41685;SDS011;27370;42.764;23.432;2022-09-14T03:31:09;10.38;;;7.35;;
41685;SDS011;27370;42.764;23.432;2022-09-14T03:33:36;13.82;;;7.45;;
41685;SDS011;27370;42.764;23.432;2022-09-14T03:36:09;10.98;;;7.32;;
41685;SDS011;27370;42.764;23.432;2022-09-14T03:38:35;11.40;;;6.85;;
41685;SDS011;27370;42.764;23.432;2022-09-14T03:41:00;13.63;;;7.97;;
41685;SDS011;27370;42.764;23.432;2022-09-14T03:43:25;12.50;;;7.65;;
41685;SDS011;27370;42.764;23.432;2022-09-14T03:45:51;13.05;;;7.22;;
41685;SDS011;27370;42.764;23.432;2022-09-14T03:48:17;10.95;;;7.25;;
41685;SDS011;27370;42.764;23.432;2022-09-14T03:50:42;12.70;;;8.60;;
41685;SDS011;27370;42.764;23.432;2022-09-14T03:53:08;11.52;;;8.00;;
41685;SDS011;27370;42.764;23.432;2022-09-14T03:55:33;13.43;;;9.38;;
41685;SDS011;27370;42.764;23.432;2022-09-14T03:57:59;13.43;;;8.10;;
41685;SDS011;27370;42.764;23.432;2022-09-14T04:00:24;11.88;;;7.60;;
41685;SDS011;27370;42.764;23.432;2022-09-14T04:02:50;10.85;;;7.40;;
41685;SDS011;27370;42.764;23.432;2022-09-14T04:05:16;12.18;;;8.57;;
41685;SDS011;27370;42.764;23.432;2022-09-14T04:07:41;14.63;;;8.00;;
41685;SDS011;27370;42.764;23.432;2022-09-14T04:10:07;12.30;;;8.18;;
41685;SDS011;27370;42.764;23.432;2022-09-14T04:12:36;13.45;;;8.35;;
41685;SDS011;27370;42.764;23.432;2022-09-14T04:15:06;13.45;;;8.23;;
41685;SDS011;27370;42.764;23.432;2022-09-14T04:19:58;12.68;;;8.43;;
41685;SDS011;27370;42.764;23.432;2022-09-14T04:22:23;14.63;;;8.85;;
41685;SDS011;27370;42.764;23.432;2022-09-14T04:24:49;11.15;;;7.70;;
41685;SDS011;27370;42.764;23.432;2022-09-14T04:27:15;15.40;;;9.65;;
41685;SDS011;27370;42.764;23.432;2022-09-14T04:29:40;14.25;;;9.43;;
41685;SDS011;27370;42.764;23.432;2022-09-14T04:32:06;14.77;;;9.35;;
41685;SDS011;27370;42.764;23.432;2022-09-14T04:34:32;18.77;;;10.05;;
41685;SDS011;27370;42.764;23.432;2022-09-14T04:36:57;17.00;;;9.82;;
41685;SDS011;27370;42.764;23.432;2022-09-14T04:39:23;17.45;;;9.93;;
41685;SDS011;27370;42.764;23.432;2022-09-14T04:41:50;15.02;;;9.30;;
41685;SDS011;27370;42.764;23.432;2022-09-14T04:44:16;15.95;;;9.50;;
41685;SDS011;27370;42.764;23.432;2022-09-14T04:46:41;14.38;;;9.52;;
41685;SDS011;27370;42.764;23.432;2022-09-14T04:49:07;13.98;;;9.25;;
41685;SDS011;27370;42.764;23.432;2022-09-14T04:51:33;15.35;;;8.82;;
41685;SDS011;27370;42.764;23.432;2022-09-14T04:54:01;15.70;;;9.18;;
41685;SDS011;27370;42.764;23.432;2022-09-14T04:56:29;14.57;;;10.00;;
41685;SDS011;27370;42.764;23.432;2022-09-14T04:58:57;17.38;;;9.48;;
41685;SDS011;27370;42.764;23.432;2022-09-14T05:01:25;17.65;;;10.30;;
41685;SDS011;27370;42.764;23.432;2022-09-14T05:03:53;19.40;;;11.85;;
41685;SDS011;27370;42.764;23.432;2022-09-14T05:06:20;17.23;;;10.80;;
41685;SDS011;27370;42.764;23.432;2022-09-14T05:08:48;16.58;;;10.88;;
41685;SDS011;27370;42.764;23.432;2022-09-14T05:11:20;15.70;;;9.60;;
41685;SDS011;27370;42.764;23.432;2022-09-14T05:13:47;12.90;;;7.80;;
41685;SDS011;27370;42.764;23.432;2022-09-14T05:16:17;11.07;;;7.30;;
41685;SDS011;27370;42.764;23.432;2022-09-14T05:18:54;10.32;;;7.35;;
41685;SDS011;27370;42.764;23.432;2022-09-14T05:21:21;9.75;;;6.32;;
41685;SDS011;27370;42.764;23.432;2022-09-14T05:23:51;10.32;;;6.35;;
41685;SDS011;27370;42.764;23.432;2022-09-14T05:26:18;9.98;;;5.70;;
41685;SDS011;27370;42.764;23.432;2022-09-14T05:28:47;9.40;;;5.88;;
41685;SDS011;27370;42.764;23.432;2022-09-14T05:31:14;8.90;;;5.53;;
41685;SDS011;27370;42.764;23.432;2022-09-14T05:33:41;11.60;;;6.07;;
41685;SDS011;27370;42.764;23.432;2022-09-14T05:36:07;10.70;;;6.32;;
41685;SDS011;27370;42.764;23.432;2022-09-14T05:38:34;9.82;;;6.28;;
41685;SDS011;27370;42.764;23.432;2022-09-14T05:41:01;10.13;;;6.70;;
41685;SDS011;27370;42.764;23.432;2022-09-14T05:43:28;12.45;;;7.45;;
41685;SDS011;27370;42.764;23.432;2022-09-14T05:45:53;12.15;;;6.70;;
41685;SDS011;27370;42.764;23.432;2022-09-14T05:48:19;10.85;;;6.60;;
41685;SDS011;27370;42.764;23.432;2022-09-14T05:50:45;10.32;;;7.05;;
41685;SDS011;27370;42.764;23.432;2022-09-14T05:53:10;12.35;;;7.32;;
41685;SDS011;27370;42.764;23.432;2022-09-14T05:55:36;12.77;;;7.82;;
41685;SDS011;27370;42.764;23.432;2022-09-14T05:58:01;13.27;;;7.43;;
41685;SDS011;27370;42.764;23.432;2022-09-14T06:00:27;13.70;;;7.90;;
41685;SDS011;27370;42.764;23.432;2022-09-14T06:02:53;16.63;;;8.05;;
41685;SDS011;27370;42.764;23.432;2022-09-14T06:05:19;13.32;;;7.90;;
41685;SDS011;27370;42.764;23.432;2022-09-14T06:07:49;12.32;;;7.78;;
41685;SDS011;27370;42.764;23.432;2022-09-14T06:10:18;14.02;;;7.63;;
41685;SDS011;27370;42.764;23.432;2022-09-14T06:12:44;14.48;;;7.40;;
41685;SDS011;27370;42.764;23.432;2022-09-14T06:15:10;11.88;;;7.40;;
41685;SDS011;27370;42.764;23.432;2022-09-14T06:17:36;10.95;;;7.07;;
41685;SDS011;27370;42.764;23.432;2022-09-14T06:20:02;10.95;;;7.15;;
41685;SDS011;27370;42.764;23.432;2022-09-14T06:22:29;12.05;;;6.43;;
41685;SDS011;27370;42.764;23.432;2022-09-14T06:24:56;10.60;;;6.57;;
41685;SDS011;27370;42.764;23.432;2022-09-14T06:27:21;10.45;;;7.05;;
41685;SDS011;27370;42.764;23.432;2022-09-14T06:29:47;9.38;;;6.47;;
41685;SDS011;27370;42.764;23.432;2022-09-14T06:32:18;11.50;;;7.50;;
41685;SDS011;27370;42.764;23.432;2022-09-14T06:34:44;12.45;;;7.00;;
41685;SDS011;27370;42.764;23.432;2022-09-14T06:37:10;11.95;;;7.10;;
41685;SDS011;27370;42.764;23.432;2022-09-14T06:39:36;13.25;;;7.15;;
41685;SDS011;27370;42.764;23.432;2022-09-14T06:42:01;11.68;;;6.72;;
41685;SDS011;27370;42.764;23.432;2022-09-14T06:44:27;10.73;;;6.60;;
41685;SDS011;27370;42.764;23.432;2022-09-14T06:46:52;9.80;;;6.40;;
41685;SDS011;27370;42.764;23.432;2022-09-14T06:49:18;13.52;;;6.60;;
41685;SDS011;27370;42.764;23.432;2022-09-14T06:51:44;12.05;;;6.68;;
41685;SDS011;27370;42.764;23.432;2022-09-14T06:54:12;15.05;;;7.25;;
41685;SDS011;27370;42.764;23.432;2022-09-14T06:56:40;11.02;;;6.90;;
41685;SDS011;27370;42.764;23.432;2022-09-14T06:59:07;13.15;;;6.93;;
41685;SDS011;27370;42.764;23.432;2022-09-14T07:01:34;13.25;;;7.05;;
41685;SDS011;27370;42.764;23.432;2022-09-14T07:04:00;12.40;;;6.35;;
41685;SDS011;27370;42.764;23.432;2022-09-14T07:06:30;11.40;;;6.45;;
41685;SDS011;27370;42.764;23.432;2022-09-14T07:08:57;11.15;;;6.30;;
41685;SDS011;27370;42.764;23.432;2022-09-14T07:11:24;11.95;;;6.60;;
41685;SDS011;27370;42.764;23.432;2022-09-14T07:13:51;10.55;;;6.57;;
41685;SDS011;27370;42.764;23.432;2022-09-14T07:16:19;11.93;;;6.40;;
41685;SDS011;27370;42.764;23.432;2022-09-14T07:18:45;15.40;;;6.65;;
41685;SDS011;27370;42.764;23.432;2022-09-14T07:21:12;11.25;;;6.78;;
41685;SDS011;27370;42.764;23.432;2022-09-14T07:23:39;12.10;;;6.28;;
41685;SDS011;27370;42.764;23.432;2022-09-14T07:26:10;13.40;;;6.65;;
41685;SDS011;27370;42.764;23.432;2022-09-14T07:28:48;12.70;;;7.45;;
41685;SDS011;27370;42.764;23.432;2022-09-14T07:33:50;11.77;;;6.70;;
41685;SDS011;27370;42.764;23.432;2022-09-14T07:36:18;11.38;;;6.38;;
41685;SDS011;27370;42.764;23.432;2022-09-14T07:38:43;11.70;;;6.30;;
41685;SDS011;27370;42.764;23.432;2022-09-14T07:41:09;10.95;;;6.22;;
41685;SDS011;27370;42.764;23.432;2022-09-14T07:43:34;14.05;;;6.22;;
41685;SDS011;27370;42.764;23.432;2022-09-14T07:46:01;15.02;;;6.57;;
41685;SDS011;27370;42.764;23.432;2022-09-14T07:48:28;12.13;;;6.15;;
41685;SDS011;27370;42.764;23.432;2022-09-14T07:51:02;10.35;;;6.13;;
41685;SDS011;27370;42.764;23.432;2022-09-14T07:53:29;11.70;;;6.00;;
41685;SDS011;27370;42.764;23.432;2022-09-14T07:55:58;9.77;;;5.80;;
41685;SDS011;27370;42.764;23.432;2022-09-14T07:58:25;8.82;;;5.43;;
41685;SDS011;27370;42.764;23.432;2022-09-14T08:00:51;10.90;;;5.30;;
41685;SDS011;27370;42.764;23.432;2022-09-14T08:03:16;10.73;;;5.35;;
41685;SDS011;27370;42.764;23.432;2022-09-14T08:05:42;8.65;;;5.22;;
41685;SDS011;27370;42.764;23.432;2022-09-14T08:08:07;9.68;;;5.88;;
41685;SDS011;27370;42.764;23.432;2022-09-14T08:10:33;13.43;;;5.57;;
41685;SDS011;27370;42.764;23.432;2022-09-14T08:12:59;11.40;;;5.10;;
41685;SDS011;27370;42.764;23.432;2022-09-14T08:15:25;11.25;;;4.95;;
41685;SDS011;27370;42.764;23.432;2022-09-14T08:17:52;10.60;;;4.53;;
41685;SDS011;27370;42.764;23.432;2022-09-14T08:20:17;14.15;;;4.60;;
41685;SDS011;27370;42.764;23.432;2022-09-14T08:22:43;8.68;;;4.00;;
41685;SDS011;27370;42.764;23.432;2022-09-14T08:25:10;7.55;;;3.95;;
41685;SDS011;27370;42.764;23.432;2022-09-14T08:27:36;6.88;;;3.42;;
41685;SDS011;27370;42.764;23.432;2022-09-14T08:30:02;7.32;;;3.80;;
41685;SDS011;27370;42.764;23.432;2022-09-14T08:32:28;7.70;;;3.80;;
41685;SDS011;27370;42.764;23.432;2022-09-14T08:34:53;7.05;;;3.65;;
41685;SDS011;27370;42.764;23.432;2022-09-14T08:37:19;8.80;;;3.40;;
41685;SDS011;27370;42.764;23.432;2022-09-14T08:39:44;8.77;;;3.70;;
41685;SDS011;27370;42.764;23.432;2022-09-14T08:42:12;6.05;;;3.33;;
41685;SDS011;27370;42.764;23.432;2022-09-14T08:44:49;7.88;;;3.30;;
41685;SDS011;27370;42.764;23.432;2022-09-14T08:47:27;7.25;;;3.55;;
41685;SDS011;27370;42.764;23.432;2022-09-14T08:52:57;8.20;;;3.58;;
41685;SDS011;27370;42.764;23.432;2022-09-14T08:55:44;11.05;;;3.53;;
41685;SDS011;27370;42.764;23.432;2022-09-14T09:00:47;10.20;;;3.65;;
41685;SDS011;27370;42.764;23.432;2022-09-14T09:06:20;5.57;;;3.38;;
41685;SDS011;27370;42.764;23.432;2022-09-14T09:11:42;6.53;;;3.30;;
41685;SDS011;27370;42.764;23.432;2022-09-14T09:14:20;7.97;;;3.13;;
41685;SDS011;27370;42.764;23.432;2022-09-14T09:16:52;6.10;;;3.13;;
41685;SDS011;27370;42.764;23.432;2022-09-14T09:19:32;9.77;;;3.75;;
41685;SDS011;27370;42.764;23.432;2022-09-14T09:22:03;6.80;;;3.10;;
41685;SDS011;27370;42.764;23.432;2022-09-14T09:24:39;8.52;;;2.90;;
41685;SDS011;27370;42.764;23.432;2022-09-14T09:27:13;9.77;;;3.17;;
41685;SDS011;27370;42.764;23.432;2022-09-14T09:29:40;6.20;;;2.95;;
41685;SDS011;27370;42.764;23.432;2022-09-14T09:35:03;6.35;;;2.90;;
41685;SDS011;27370;42.764;23.432;2022-09-14T09:37:40;5.57;;;2.97;;
41685;SDS011;27370;42.764;23.432;2022-09-14T09:40:16;8.23;;;3.17;;
41685;SDS011;27370;42.764;23.432;2022-09-14T09:43:08;9.07;;;3.17;;
41685;SDS011;27370;42.764;23.432;2022-09-14T09:45:44;6.63;;;2.80;;
41685;SDS011;27370;42.764;23.432;2022-09-14T09:48:31;6.40;;;2.75;;
41685;SDS011;27370;42.764;23.432;2022-09-14T09:53:53;5.38;;;2.80;;
41685;SDS011;27370;42.764;23.432;2022-09-14T09:56:29;7.25;;;2.67;;
41685;SDS011;27370;42.764;23.432;2022-09-14T09:58:57;6.28;;;2.90;;
41685;SDS011;27370;42.764;23.432;2022-09-14T10:01:30;7.00;;;2.78;;
41685;SDS011;27370;42.764;23.432;2022-09-14T10:06:46;5.25;;;3.10;;
41685;SDS011;27370;42.764;23.432;2022-09-14T10:09:17;5.05;;;2.40;;
41685;SDS011;27370;42.764;23.432;2022-09-14T10:11:44;3.90;;;2.70;;
41685;SDS011;27370;42.764;23.432;2022-09-14T10:14:22;6.10;;;2.80;;
41685;SDS011;27370;42.764;23.432;2022-09-14T10:17:17;4.22;;;2.45;;
41685;SDS011;27370;42.764;23.432;2022-09-14T10:19:47;8.18;;;2.70;;
41685;SDS011;27370;42.764;23.432;2022-09-14T10:22:34;8.63;;;2.67;;
41685;SDS011;27370;42.764;23.432;2022-09-14T10:30:09;3.85;;;2.20;;
41685;SDS011;27370;42.764;23.432;2022-09-14T10:32:39;5.43;;;2.40;;
41685;SDS011;27370;42.764;23.432;2022-09-14T10:35:11;4.37;;;2.30;;
41685;SDS011;27370;42.764;23.432;2022-09-14T10:40:32;4.63;;;2.30;;
41685;SDS011;27370;42.764;23.432;2022-09-14T10:46:00;4.97;;;2.22;;
41685;SDS011;27370;42.764;23.432;2022-09-14T10:51:21;2.95;;;2.00;;
41685;SDS011;27370;42.764;23.432;2022-09-14T10:56:38;3.38;;;1.77;;
41685;SDS011;27370;42.764;23.432;2022-09-14T11:07:25;6.82;;;1.60;;
41685;SDS011;27370;42.764;23.432;2022-09-14T11:09:56;4.65;;;1.30;;
41685;SDS011;27370;42.764;23.432;2022-09-14T11:12:35;2.92;;;1.50;;
41685;SDS011;27370;42.764;23.432;2022-09-14T11:26:13;5.97;;;1.50;;
41685;SDS011;27370;42.764;23.432;2022-09-14T11:28:45;1.90;;;1.40;;
41685;SDS011;27370;42.764;23.432;2022-09-14T11:31:19;3.05;;;1.40;;
41685;SDS011;27370;42.764;23.432;2022-09-14T11:36:36;4.53;;;1.55;;
41685;SDS011;27370;42.764;23.432;2022-09-14T11:39:17;2.85;;;1.50;;
41685;SDS011;27370;42.764;23.432;2022-09-14T11:41:49;2.60;;;1.40;;
41685;SDS011;27370;42.764;23.432;2022-09-14T11:44:22;6.10;;;1.60;;
41685;SDS011;27370;42.764;23.432;2022-09-14T11:49:29;2.70;;;1.60;;
41685;SDS011;27370;42.764;23.432;2022-09-14T11:52:16;2.08;;;1.30;;
41685;SDS011;27370;42.764;23.432;2022-09-14T11:54:47;2.22;;;1.35;;
41685;SDS011;27370;42.764;23.432;2022-09-14T11:57:17;4.03;;;1.50;;
41685;SDS011;27370;42.764;23.432;2022-09-14T12:00:03;2.65;;;1.67;;
41685;SDS011;27370;42.764;23.432;2022-09-14T12:03:11;5.03;;;1.33;;
41685;SDS011;27370;42.764;23.432;2022-09-14T12:05:42;4.57;;;1.30;;
41685;SDS011;27370;42.764;23.432;2022-09-14T12:13:29;2.45;;;1.42;;
41685;SDS011;27370;42.764;23.432;2022-09-14T12:16:01;2.95;;;1.38;;
41685;SDS011;27370;42.764;23.432;2022-09-14T12:18:29;1.60;;;1.30;;
41685;SDS011;27370;42.764;23.432;2022-09-14T12:35:55;2.53;;;1.50;;
41685;SDS011;27370;42.764;23.432;2022-09-14T13:01:53;4.80;;;1.52;;
41685;SDS011;27370;42.764;23.432;2022-09-14T13:06:46;3.33;;;1.50;;
41685;SDS011;27370;42.764;23.432;2022-09-14T13:09:20;2.80;;;1.52;;
41685;SDS011;27370;42.764;23.432;2022-09-14T13:12:04;4.60;;;1.45;;
41685;SDS011;27370;42.764;23.432;2022-09-14T13:14:37;3.90;;;1.38;;
41685;SDS011;27370;42.764;23.432;2022-09-14T13:17:04;2.78;;;1.50;;
41685;SDS011;27370;42.764;23.432;2022-09-14T13:19:40;4.55;;;1.60;;
41685;SDS011;27370;42.764;23.432;2022-09-14T13:22:16;3.70;;;1.48;;
41685;SDS011;27370;42.764;23.432;2022-09-14T13:24:45;2.63;;;1.50;;
41685;SDS011;27370;42.764;23.432;2022-09-14T13:27:25;2.17;;;1.17;;
41685;SDS011;27370;42.764;23.432;2022-09-14T13:30:01;5.72;;;1.70;;
41685;SDS011;27370;42.764;23.432;2022-09-14T13:32:46;3.15;;;1.73;;
41685;SDS011;27370;42.764;23.432;2022-09-14T13:35:23;1.92;;;1.30;;
41685;SDS011;27370;42.764;23.432;2022-09-14T13:37:53;1.88;;;1.40;;
41685;SDS011;27370;42.764;23.432;2022-09-14T13:40:23;2.65;;;1.60;;
41685;SDS011;27370;42.764;23.432;2022-09-14T13:42:52;4.03;;;1.45;;
41685;SDS011;27370;42.764;23.432;2022-09-14T13:45:18;7.38;;;1.55;;
41685;SDS011;27370;42.764;23.432;2022-09-14T13:47:44;4.35;;;1.40;;
41685;SDS011;27370;42.764;23.432;2022-09-14T13:50:11;4.03;;;1.40;;
41685;SDS011;27370;42.764;23.432;2022-09-14T13:52:38;2.17;;;1.30;;
41685;SDS011;27370;42.764;23.432;2022-09-14T13:57:31;1.80;;;1.40;;
41685;SDS011;27370;42.764;23.432;2022-09-14T14:02:53;2.53;;;1.40;;
41685;SDS011;27370;42.764;23.432;2022-09-14T14:05:27;2.90;;;1.20;;
41685;SDS011;27370;42.764;23.432;2022-09-14T14:07:55;3.30;;;1.30;;
41685;SDS011;27370;42.764;23.432;2022-09-14T14:12:59;2.97;;;1.10;;
41685;SDS011;27370;42.764;23.432;2022-09-14T14:17:53;5.07;;;1.40;;
41685;SDS011;27370;42.764;23.432;2022-09-14T14:23:32;3.33;;;1.40;;
41685;SDS011;27370;42.764;23.432;2022-09-14T14:25:50;1.95;;;1.38;;
41685;SDS011;27370;42.764;23.432;2022-09-14T14:28:25;2.67;;;1.25;;
41685;SDS011;27370;42.764;23.432;2022-09-14T14:30:53;3.70;;;1.50;;
41685;SDS011;27370;42.764;23.432;2022-09-14T14:33:20;3.83;;;1.77;;
41685;SDS011;27370;42.764;23.432;2022-09-14T14:35:47;2.22;;;1.25;;
41685;SDS011;27370;42.764;23.432;2022-09-14T14:38:15;2.05;;;1.30;;
41685;SDS011;27370;42.764;23.432;2022-09-14T14:40:41;2.38;;;1.65;;
41685;SDS011;27370;42.764;23.432;2022-09-14T14:43:08;4.88;;;1.60;;
41685;SDS011;27370;42.764;23.432;2022-09-14T14:45:41;1.30;;;1.20;;
41685;SDS011;27370;42.764;23.432;2022-09-14T14:48:07;8.75;;;1.55;;
41685;SDS011;27370;42.764;23.432;2022-09-14T14:50:34;4.20;;;1.27;;
41685;SDS011;27370;42.764;23.432;2022-09-14T14:53:00;2.17;;;1.40;;
41685;SDS011;27370;42.764;23.432;2022-09-14T14:55:27;3.92;;;1.42;;
41685;SDS011;27370;42.764;23.432;2022-09-14T14:58:00;2.65;;;1.58;;
41685;SDS011;27370;42.764;23.432;2022-09-14T15:00:29;2.10;;;1.50;;
41685;SDS011;27370;42.764;23.432;2022-09-14T15:02:57;3.93;;;1.67;;
41685;SDS011;27370;42.764;23.432;2022-09-14T15:05:23;5.35;;;1.50;;
41685;SDS011;27370;42.764;23.432;2022-09-14T15:07:49;4.25;;;1.40;;
41685;SDS011;27370;42.764;23.432;2022-09-14T15:10:18;3.80;;;1.60;;
41685;SDS011;27370;42.764;23.432;2022-09-14T15:12:44;3.90;;;1.60;;
41685;SDS011;27370;42.764;23.432;2022-09-14T15:15:13;2.50;;;1.52;;
41685;SDS011;27370;42.764;23.432;2022-09-14T15:17:41;1.77;;;1.35;;
41685;SDS011;27370;42.764;23.432;2022-09-14T15:20:07;4.90;;;1.48;;
41685;SDS011;27370;42.764;23.432;2022-09-14T15:22:33;3.75;;;1.60;;
41685;SDS011;27370;42.764;23.432;2022-09-14T15:25:00;4.28;;;1.50;;
41685;SDS011;27370;42.764;23.432;2022-09-14T15:27:26;4.88;;;1.33;;
41685;SDS011;27370;42.764;23.432;2022-09-14T15:29:52;3.42;;;1.27;;
41685;SDS011;27370;42.764;23.432;2022-09-14T15:32:17;3.67;;;1.45;;
41685;SDS011;27370;42.764;23.432;2022-09-14T15:34:43;2.67;;;1.20;;
41685;SDS011;27370;42.764;23.432;2022-09-14T15:37:08;4.60;;;1.23;;
41685;SDS011;27370;42.764;23.432;2022-09-14T15:39:34;1.92;;;1.20;;
41685;SDS011;27370;42.764;23.432;2022-09-14T15:42:00;4.25;;;1.40;;
41685;SDS011;27370;42.764;23.432;2022-09-14T15:44:25;3.42;;;1.42;;
41685;SDS011;27370;42.764;23.432;2022-09-14T15:46:51;3.95;;;1.58;;
41685;SDS011;27370;42.764;23.432;2022-09-14T15:49:20;3.30;;;1.70;;
41685;SDS011;27370;42.764;23.432;2022-09-14T15:51:48;2.63;;;1.60;;
41685;SDS011;27370;42.764;23.432;2022-09-14T15:54:14;3.40;;;1.60;;
41685;SDS011;27370;42.764;23.432;2022-09-14T15:56:41;4.00;;;1.92;;
41685;SDS011;27370;42.764;23.432;2022-09-14T15:59:07;3.97;;;1.48;;
41685;SDS011;27370;42.764;23.432;2022-09-14T16:01:33;4.20;;;1.40;;
41685;SDS011;27370;42.764;23.432;2022-09-14T16:04:01;4.10;;;1.80;;
41685;SDS011;27370;42.764;23.432;2022-09-14T16:06:28;5.32;;;2.05;;
41685;SDS011;27370;42.764;23.432;2022-09-14T16:08:54;6.32;;;1.88;;
41685;SDS011;27370;42.764;23.432;2022-09-14T16:11:21;7.85;;;2.00;;
41685;SDS011;27370;42.764;23.432;2022-09-14T16:13:48;6.85;;;1.80;;
41685;SDS011;27370;42.764;23.432;2022-09-14T16:16:15;8.07;;;2.35;;
41685;SDS011;27370;42.764;23.432;2022-09-14T16:18:41;7.13;;;1.98;;
41685;SDS011;27370;42.764;23.432;2022-09-14T16:21:08;10.93;;;3.05;;
41685;SDS011;27370;42.764;23.432;2022-09-14T16:23:39;7.93;;;2.80;;
41685;SDS011;27370;42.764;23.432;2022-09-14T16:26:13;6.28;;;1.88;;
41685;SDS011;27370;42.764;23.432;2022-09-14T16:28:41;8.00;;;2.20;;
41685;SDS011;27370;42.764;23.432;2022-09-14T16:33:39;10.15;;;2.05;;
41685;SDS011;27370;42.764;23.432;2022-09-14T16:36:07;9.85;;;1.90;;
41685;SDS011;27370;42.764;23.432;2022-09-14T16:38:35;8.68;;;1.60;;
41685;SDS011;27370;42.764;23.432;2022-09-14T16:41:01;8.70;;;1.92;;
41685;SDS011;27370;42.764;23.432;2022-09-14T16:43:28;5.25;;;1.73;;
41685;SDS011;27370;42.764;23.432;2022-09-14T16:46:01;6.80;;;1.77;;
41685;SDS011;27370;42.764;23.432;2022-09-14T16:48:29;11.27;;;2.63;;
41685;SDS011;27370;42.764;23.432;2022-09-14T16:50:55;9.70;;;2.28;;
41685;SDS011;27370;42.764;23.432;2022-09-14T16:53:21;9.10;;;2.50;;
41685;SDS011;27370;42.764;23.432;2022-09-14T16:55:46;12.77;;;2.92;;
41685;SDS011;27370;42.764;23.432;2022-09-14T16:58:12;11.93;;;3.50;;
41685;SDS011;27370;42.764;23.432;2022-09-14T17:00:39;10.13;;;2.83;;
41685;SDS011;27370;42.764;23.432;2022-09-14T17:03:05;11.05;;;2.70;;
41685;SDS011;27370;42.764;23.432;2022-09-14T17:05:30;10.25;;;2.17;;
41685;SDS011;27370;42.764;23.432;2022-09-14T17:07:56;6.40;;;2.70;;
41685;SDS011;27370;42.764;23.432;2022-09-14T17:10:21;7.35;;;2.92;;
41685;SDS011;27370;42.764;23.432;2022-09-14T17:12:46;19.67;;;7.35;;
41685;SDS011;27370;42.764;23.432;2022-09-14T17:15:12;13.38;;;4.68;;
41685;SDS011;27370;42.764;23.432;2022-09-14T17:17:38;15.25;;;4.63;;
41685;SDS011;27370;42.764;23.432;2022-09-14T17:20:04;15.48;;;3.80;;